sensor_id;sensor_type;location;lat;lon;timestamp;pressure;altitude;pressure_sealevel;temperature;humidity
67803;BME280;72185;51.378;-1.342;2023-11-18T00:02:11;100456.54;;;17.95;36.00
67803;BME280;72185;51.378;-1.342;2023-11-18T00:04:37;100457.49;;;18.09;35.82
67803;BME280;72185;51.378;-1.342;2023-11-18T00:07:03;100463.91;;;18.18;35.71
67803;BME280;72185;51.378;-1.342;2023-11-18T00:09:28;100463.09;;;18.55;35.84
67803;BME280;72185;51.378;-1.342;2023-11-18T00:11:54;100453.64;;;18.30;35.85
67803;BME280;72185;51.378;-1.342;2023-11-18T00:14:19;100448.68;;;18.28;35.86
67803;BME280;72185;51.378;-1.342;2023-11-18T00:16:45;100439.25;;;18.04;35.84
67803;BME280;72185;51.378;-1.342;2023-11-18T00:19:10;100440.90;;;18.37;35.79
67803;BME280;72185;51.378;-1.342;2023-11-18T00:21:36;100438.72;;;17.92;35.96
67803;BME280;72185;51.378;-1.342;2023-11-18T00:24:01;100434.07;;;17.97;35.93
67803;BME280;72185;51.378;-1.342;2023-11-18T00:26:27;100431.65;;;18.45;35.91
67803;BME280;72185;51.378;-1.342;2023-11-18T00:28:53;100422.20;;;18.24;35.90
67803;BME280;72185;51.378;-1.342;2023-11-18T00:31:18;100411.65;;;18.03;35.82
67803;BME280;72185;51.378;-1.342;2023-11-18T00:33:44;100401.32;;;18.22;35.93
67803;BME280;72185;51.378;-1.342;2023-11-18T00:36:10;100391.41;;;18.37;35.73
67803;BME280;72185;51.378;-1.342;2023-11-18T00:38:35;100390.71;;;17.88;35.95
67803;BME280;72185;51.378;-1.342;2023-11-18T00:41:00;100380.68;;;18.57;35.76
67803;BME280;72185;51.378;-1.342;2023-11-18T00:43:26;100359.75;;;18.21;35.90
67803;BME280;72185;51.378;-1.342;2023-11-18T00:45:51;100349.93;;;18.21;35.89
67803;BME280;72185;51.378;-1.342;2023-11-18T00:48:17;100352.69;;;17.87;35.99
67803;BME280;72185;51.378;-1.342;2023-11-18T00:50:42;100358.86;;;17.95;35.90
67803;BME280;72185;51.378;-1.342;2023-11-18T00:53:08;100358.98;;;17.96;35.89
67803;BME280;72185;51.378;-1.342;2023-11-18T00:55:33;100342.05;;;18.21;35.90
67803;BME280;72185;51.378;-1.342;2023-11-18T00:57:59;100333.23;;;17.75;36.11
67803;BME280;72185;51.378;-1.342;2023-11-18T01:00:24;100328.74;;;18.11;36.02
67803;BME280;72185;51.378;-1.342;2023-11-18T01:02:50;100336.43;;;17.91;35.93
67803;BME280;72185;51.378;-1.342;2023-11-18T01:05:15;100335.26;;;18.36;35.99
67803;BME280;72185;51.378;-1.342;2023-11-18T01:07:41;100317.70;;;18.30;36.03
67803;BME280;72185;51.378;-1.342;2023-11-18T01:10:07;100309.50;;;18.15;35.95
67803;BME280;72185;51.378;-1.342;2023-11-18T01:12:32;100304.79;;;17.89;35.91
67803;BME280;72185;51.378;-1.342;2023-11-18T01:14:57;100294.28;;;18.49;35.86
67803;BME280;72185;51.378;-1.342;2023-11-18T01:17:23;100291.09;;;18.19;35.89
67803;BME280;72185;51.378;-1.342;2023-11-18T01:19:49;100289.63;;;17.91;35.89
67803;BME280;72185;51.378;-1.342;2023-11-18T01:22:14;100294.56;;;18.49;35.80
67803;BME280;72185;51.378;-1.342;2023-11-18T01:24:40;100288.81;;;18.19;35.86
67803;BME280;72185;51.378;-1.342;2023-11-18T01:27:05;100288.06;;;18.46;35.83
67803;BME280;72185;51.378;-1.342;2023-11-18T01:29:31;100280.74;;;18.12;35.93
67803;BME280;72185;51.378;-1.342;2023-11-18T01:31:56;100276.38;;;18.03;35.74
67803;BME280;72185;51.378;-1.342;2023-11-18T01:34:22;100269.31;;;18.30;35.95
67803;BME280;72185;51.378;-1.342;2023-11-18T01:36:47;100260.72;;;18.24;36.04
67803;BME280;72185;51.378;-1.342;2023-11-18T01:39:13;100253.62;;;18.15;35.87
67803;BME280;72185;51.378;-1.342;2023-11-18T01:41:39;100250.96;;;18.41;35.85
67803;BME280;72185;51.378;-1.342;2023-11-18T01:44:04;100256.31;;;17.96;35.79
67803;BME280;72185;51.378;-1.342;2023-11-18T01:46:30;100262.32;;;18.42;35.83
67803;BME280;72185;51.378;-1.342;2023-11-18T01:48:56;100254.69;;;18.14;35.84
67803;BME280;72185;51.378;-1.342;2023-11-18T01:51:21;100243.13;;;17.74;36.03
67803;BME280;72185;51.378;-1.342;2023-11-18T01:53:47;100238.02;;;18.29;35.95
67803;BME280;72185;51.378;-1.342;2023-11-18T01:56:12;100235.54;;;17.92;35.80
67803;BME280;72185;51.378;-1.342;2023-11-18T01:58:38;100225.09;;;17.88;35.85
67803;BME280;72185;51.378;-1.342;2023-11-18T02:01:04;100226.94;;;18.16;35.81
67803;BME280;72185;51.378;-1.342;2023-11-18T02:03:29;100216.34;;;18.01;35.99
67803;BME280;72185;51.378;-1.342;2023-11-18T02:05:54;100211.46;;;17.74;35.96
67803;BME280;72185;51.378;-1.342;2023-11-18T02:08:20;100213.43;;;17.88;35.83
67803;BME280;72185;51.378;-1.342;2023-11-18T02:10:48;100204.42;;;17.83;35.86
67803;BME280;72185;51.378;-1.342;2023-11-18T02:13:19;100193.81;;;18.39;35.79
67803;BME280;72185;51.378;-1.342;2023-11-18T02:15:38;100185.01;;;17.96;36.03
67803;BME280;72185;51.378;-1.342;2023-11-18T02:18:04;100183.32;;;17.80;35.89
67803;BME280;72185;51.378;-1.342;2023-11-18T02:20:28;100183.08;;;18.17;36.06
67803;BME280;72185;51.378;-1.342;2023-11-18T02:22:53;100172.08;;;17.99;35.99
67803;BME280;72185;51.378;-1.342;2023-11-18T02:25:19;100164.45;;;18.23;35.96
67803;BME280;72185;51.378;-1.342;2023-11-18T02:27:45;100170.91;;;18.09;35.89
67803;BME280;72185;51.378;-1.342;2023-11-18T02:30:11;100163.35;;;18.31;35.86
67803;BME280;72185;51.378;-1.342;2023-11-18T02:32:39;100160.45;;;18.09;35.88
67803;BME280;72185;51.378;-1.342;2023-11-18T02:35:05;100159.80;;;18.43;35.73
67803;BME280;72185;51.378;-1.342;2023-11-18T02:37:27;100158.26;;;17.83;35.84
67803;BME280;72185;51.378;-1.342;2023-11-18T02:39:57;100148.02;;;18.05;35.89
67803;BME280;72185;51.378;-1.342;2023-11-18T02:42:18;100147.38;;;18.07;35.86
67803;BME280;72185;51.378;-1.342;2023-11-18T02:44:43;100139.35;;;18.28;35.86
67803;BME280;72185;51.378;-1.342;2023-11-18T02:47:09;100133.93;;;18.09;35.83
67803;BME280;72185;51.378;-1.342;2023-11-18T02:49:35;100125.76;;;17.70;36.00
67803;BME280;72185;51.378;-1.342;2023-11-18T02:52:00;100118.38;;;18.13;35.84
67803;BME280;72185;51.378;-1.342;2023-11-18T02:54:26;100115.24;;;17.78;35.94
67803;BME280;72185;51.378;-1.342;2023-11-18T02:56:51;100107.07;;;17.96;36.04
67803;BME280;72185;51.378;-1.342;2023-11-18T02:59:17;100103.49;;;18.08;35.85
67803;BME280;72185;51.378;-1.342;2023-11-18T03:01:42;100100.98;;;18.19;35.99
67803;BME280;72185;51.378;-1.342;2023-11-18T03:04:08;100098.27;;;18.26;35.86
67803;BME280;72185;51.378;-1.342;2023-11-18T03:06:34;100093.39;;;18.38;35.76
67803;BME280;72185;51.378;-1.342;2023-11-18T03:08:59;100085.95;;;18.14;36.05
67803;BME280;72185;51.378;-1.342;2023-11-18T03:11:25;100072.04;;;17.72;35.95
67803;BME280;72185;51.378;-1.342;2023-11-18T03:13:50;100067.53;;;18.07;36.11
67803;BME280;72185;51.378;-1.342;2023-11-18T03:16:16;100059.81;;;18.32;35.84
67803;BME280;72185;51.378;-1.342;2023-11-18T03:18:43;100062.19;;;18.02;35.98
67803;BME280;72185;51.378;-1.342;2023-11-18T03:21:11;100053.67;;;18.04;35.90
67803;BME280;72185;51.378;-1.342;2023-11-18T03:23:32;100053.30;;;17.99;35.97
67803;BME280;72185;51.378;-1.342;2023-11-18T03:25:58;100044.91;;;18.13;36.07
67803;BME280;72185;51.378;-1.342;2023-11-18T03:28:24;100035.76;;;18.05;35.90
67803;BME280;72185;51.378;-1.342;2023-11-18T03:30:49;100022.71;;;17.93;36.02
67803;BME280;72185;51.378;-1.342;2023-11-18T03:33:15;100043.17;;;17.69;36.01
67803;BME280;72185;51.378;-1.342;2023-11-18T03:35:40;100018.06;;;18.23;35.93
67803;BME280;72185;51.378;-1.342;2023-11-18T03:38:06;100003.77;;;18.09;36.16
67803;BME280;72185;51.378;-1.342;2023-11-18T03:40:31;99989.94;;;18.17;36.00
67803;BME280;72185;51.378;-1.342;2023-11-18T03:42:57;99997.70;;;17.97;35.99
67803;BME280;72185;51.378;-1.342;2023-11-18T03:45:22;100001.79;;;17.84;36.12
67803;BME280;72185;51.378;-1.342;2023-11-18T03:47:48;99997.02;;;18.13;36.03
67803;BME280;72185;51.378;-1.342;2023-11-18T03:50:14;99995.73;;;18.10;36.09
67803;BME280;72185;51.378;-1.342;2023-11-18T03:52:39;99989.13;;;17.95;36.04
67803;BME280;72185;51.378;-1.342;2023-11-18T03:55:05;99978.54;;;18.08;36.11
67803;BME280;72185;51.378;-1.342;2023-11-18T03:57:30;99959.19;;;18.10;36.09
67803;BME280;72185;51.378;-1.342;2023-11-18T03:59:56;99946.52;;;18.24;35.90
67803;BME280;72185;51.378;-1.342;2023-11-18T04:02:21;99967.59;;;18.15;36.03
67803;BME280;72185;51.378;-1.342;2023-11-18T04:04:47;99944.29;;;18.24;35.91
67803;BME280;72185;51.378;-1.342;2023-11-18T04:07:12;99936.25;;;17.97;36.02
67803;BME280;72185;51.378;-1.342;2023-11-18T04:09:38;99927.95;;;18.08;36.15
67803;BME280;72185;51.378;-1.342;2023-11-18T04:12:04;99921.41;;;18.34;35.81
67803;BME280;72185;51.378;-1.342;2023-11-18T04:14:29;99911.62;;;18.07;36.16
67803;BME280;72185;51.378;-1.342;2023-11-18T04:16:55;99912.00;;;18.05;36.18
67803;BME280;72185;51.378;-1.342;2023-11-18T04:19:20;99914.93;;;18.21;35.98
67803;BME280;72185;51.378;-1.342;2023-11-18T04:21:47;99905.76;;;17.98;36.01
67803;BME280;72185;51.378;-1.342;2023-11-18T04:24:11;99895.43;;;18.02;35.92
67803;BME280;72185;51.378;-1.342;2023-11-18T04:26:37;99887.11;;;17.97;36.02
67803;BME280;72185;51.378;-1.342;2023-11-18T04:29:02;99886.63;;;18.19;36.02
67803;BME280;72185;51.378;-1.342;2023-11-18T04:31:28;99901.78;;;18.04;35.93
67803;BME280;72185;51.378;-1.342;2023-11-18T04:33:54;99904.90;;;17.89;36.14
67803;BME280;72185;51.378;-1.342;2023-11-18T04:36:19;99906.19;;;17.92;36.09
67803;BME280;72185;51.378;-1.342;2023-11-18T04:38:45;99892.19;;;18.19;36.09
67803;BME280;72185;51.378;-1.342;2023-11-18T04:41:10;99900.73;;;18.01;36.24
67803;BME280;72185;51.378;-1.342;2023-11-18T04:43:36;99908.39;;;18.18;36.09
67803;BME280;72185;51.378;-1.342;2023-11-18T04:46:01;99906.50;;;18.17;36.06
67803;BME280;72185;51.378;-1.342;2023-11-18T04:48:27;99881.70;;;17.84;36.20
67803;BME280;72185;51.378;-1.342;2023-11-18T04:50:52;99874.19;;;18.11;36.16
67803;BME280;72185;51.378;-1.342;2023-11-18T04:53:18;99866.61;;;17.54;36.28
67803;BME280;72185;51.378;-1.342;2023-11-18T04:55:43;99855.29;;;18.01;36.25
67803;BME280;72185;51.378;-1.342;2023-11-18T04:58:09;99854.91;;;18.09;36.20
67803;BME280;72185;51.378;-1.342;2023-11-18T05:00:35;99845.42;;;18.16;36.09
67803;BME280;72185;51.378;-1.342;2023-11-18T05:03:00;99844.12;;;18.06;36.26
67803;BME280;72185;51.378;-1.342;2023-11-18T05:05:26;99842.95;;;18.08;36.17
67803;BME280;72185;51.378;-1.342;2023-11-18T05:07:51;99838.81;;;18.08;36.20
67803;BME280;72185;51.378;-1.342;2023-11-18T05:10:17;99831.51;;;18.13;36.15
67803;BME280;72185;51.378;-1.342;2023-11-18T05:12:43;99839.69;;;17.90;36.46
67803;BME280;72185;51.378;-1.342;2023-11-18T05:15:08;99826.15;;;18.04;36.03
67803;BME280;72185;51.378;-1.342;2023-11-18T05:17:34;99808.50;;;18.04;36.26
67803;BME280;72185;51.378;-1.342;2023-11-18T05:19:59;99813.62;;;17.57;36.26
67803;BME280;72185;51.378;-1.342;2023-11-18T05:22:25;99808.03;;;18.05;36.26
67803;BME280;72185;51.378;-1.342;2023-11-18T05:24:50;99811.72;;;18.11;36.18
67803;BME280;72185;51.378;-1.342;2023-11-18T05:27:16;99806.89;;;18.15;36.16
67803;BME280;72185;51.378;-1.342;2023-11-18T05:29:41;99807.74;;;18.28;36.00
67803;BME280;72185;51.378;-1.342;2023-11-18T05:32:07;99801.70;;;18.19;36.09
67803;BME280;72185;51.378;-1.342;2023-11-18T05:34:32;99801.74;;;18.18;36.13
67803;BME280;72185;51.378;-1.342;2023-11-18T05:36:58;99788.33;;;17.99;36.35
67803;BME280;72185;51.378;-1.342;2023-11-18T05:39:24;99785.58;;;18.06;36.27
67803;BME280;72185;51.378;-1.342;2023-11-18T05:41:49;99780.44;;;18.08;36.22
67803;BME280;72185;51.378;-1.342;2023-11-18T05:44:15;99777.75;;;17.62;36.24
67803;BME280;72185;51.378;-1.342;2023-11-18T05:46:40;99784.04;;;18.40;36.10
67803;BME280;72185;51.378;-1.342;2023-11-18T05:49:06;99778.64;;;17.85;36.25
67803;BME280;72185;51.378;-1.342;2023-11-18T05:51:31;99765.50;;;17.79;36.39
67803;BME280;72185;51.378;-1.342;2023-11-18T05:53:57;99761.30;;;18.12;36.20
67803;BME280;72185;51.378;-1.342;2023-11-18T05:56:22;99751.03;;;18.13;36.26
67803;BME280;72185;51.378;-1.342;2023-11-18T05:58:48;99747.86;;;18.02;36.37
67803;BME280;72185;51.378;-1.342;2023-11-18T06:01:14;99741.80;;;18.17;36.49
67803;BME280;72185;51.378;-1.342;2023-11-18T06:03:39;99751.33;;;18.21;36.45
67803;BME280;72185;51.378;-1.342;2023-11-18T06:06:06;99740.23;;;18.12;36.70
67803;BME280;72185;51.378;-1.342;2023-11-18T06:08:30;99731.74;;;17.87;36.53
67803;BME280;72185;51.378;-1.342;2023-11-18T06:10:56;99734.51;;;18.59;36.45
67803;BME280;72185;51.378;-1.342;2023-11-18T06:13:21;99731.04;;;18.46;36.45
67803;BME280;72185;51.378;-1.342;2023-11-18T06:15:47;99726.35;;;18.71;36.40
67803;BME280;72185;51.378;-1.342;2023-11-18T06:18:12;99722.13;;;18.31;36.28
67803;BME280;72185;51.378;-1.342;2023-11-18T06:20:38;99714.69;;;18.28;36.47
67803;BME280;72185;51.378;-1.342;2023-11-18T06:23:03;99715.34;;;18.59;36.48
67803;BME280;72185;51.378;-1.342;2023-11-18T06:25:29;99706.98;;;18.33;36.44
67803;BME280;72185;51.378;-1.342;2023-11-18T06:27:54;99703.00;;;18.37;36.56
67803;BME280;72185;51.378;-1.342;2023-11-18T06:30:20;99691.68;;;18.88;36.43
67803;BME280;72185;51.378;-1.342;2023-11-18T06:32:46;99683.93;;;18.99;36.39
67803;BME280;72185;51.378;-1.342;2023-11-18T06:35:11;99679.98;;;18.73;36.48
67803;BME280;72185;51.378;-1.342;2023-11-18T06:37:37;99681.87;;;18.79;36.52
67803;BME280;72185;51.378;-1.342;2023-11-18T06:40:03;99670.24;;;18.66;36.36
67803;BME280;72185;51.378;-1.342;2023-11-18T06:42:28;99674.72;;;19.06;36.48
67803;BME280;72185;51.378;-1.342;2023-11-18T06:44:53;99676.56;;;18.82;36.56
67803;BME280;72185;51.378;-1.342;2023-11-18T06:47:19;99680.39;;;19.02;36.57
67803;BME280;72185;51.378;-1.342;2023-11-18T06:49:44;99676.36;;;18.70;36.46
67803;BME280;72185;51.378;-1.342;2023-11-18T06:52:10;99654.85;;;18.70;36.43
67803;BME280;72185;51.378;-1.342;2023-11-18T06:54:35;99653.80;;;18.86;36.59
67803;BME280;72185;51.378;-1.342;2023-11-18T06:57:01;99646.17;;;18.86;36.37
67803;BME280;72185;51.378;-1.342;2023-11-18T06:59:26;99642.43;;;18.92;36.32
67803;BME280;72185;51.378;-1.342;2023-11-18T07:01:52;99633.35;;;19.07;36.46
67803;BME280;72185;51.378;-1.342;2023-11-18T07:04:18;99631.78;;;18.82;36.48
67803;BME280;72185;51.378;-1.342;2023-11-18T07:06:43;99644.95;;;19.03;36.27
67803;BME280;72185;51.378;-1.342;2023-11-18T07:09:09;99641.58;;;19.03;36.27
67803;BME280;72185;51.378;-1.342;2023-11-18T07:11:34;99637.34;;;18.98;36.28
67803;BME280;72185;51.378;-1.342;2023-11-18T07:14:00;99641.70;;;18.95;36.36
67803;BME280;72185;51.378;-1.342;2023-11-18T07:16:25;99644.16;;;18.96;36.33
67803;BME280;72185;51.378;-1.342;2023-11-18T07:18:51;99629.80;;;18.87;36.44
67803;BME280;72185;51.378;-1.342;2023-11-18T07:21:16;99629.44;;;18.99;36.27
67803;BME280;72185;51.378;-1.342;2023-11-18T07:23:42;99626.97;;;19.00;36.33
67803;BME280;72185;51.378;-1.342;2023-11-18T07:26:07;99631.24;;;19.01;36.33
67803;BME280;72185;51.378;-1.342;2023-11-18T07:28:33;99634.33;;;19.03;36.30
67803;BME280;72185;51.378;-1.342;2023-11-18T07:30:58;99630.77;;;19.13;36.29
67803;BME280;72185;51.378;-1.342;2023-11-18T07:33:24;99638.52;;;19.19;36.29
67803;BME280;72185;51.378;-1.342;2023-11-18T07:35:50;99638.90;;;19.06;36.41
67803;BME280;72185;51.378;-1.342;2023-11-18T07:38:16;99641.26;;;19.09;36.41
67803;BME280;72185;51.378;-1.342;2023-11-18T07:40:41;99628.69;;;19.27;36.27
67803;BME280;72185;51.378;-1.342;2023-11-18T07:43:07;99628.89;;;19.30;36.24
67803;BME280;72185;51.378;-1.342;2023-11-18T07:45:35;99621.67;;;19.27;36.29
67803;BME280;72185;51.378;-1.342;2023-11-18T07:47:57;99625.23;;;19.21;36.33
67803;BME280;72185;51.378;-1.342;2023-11-18T07:50:22;99637.34;;;19.03;36.39
67803;BME280;72185;51.378;-1.342;2023-11-18T07:52:48;99637.63;;;19.32;36.37
67803;BME280;72185;51.378;-1.342;2023-11-18T07:55:14;99638.18;;;19.21;36.59
67803;BME280;72185;51.378;-1.342;2023-11-18T07:57:39;99640.41;;;19.25;36.60
67803;BME280;72185;51.378;-1.342;2023-11-18T08:00:05;99627.91;;;19.15;36.69
67803;BME280;72185;51.378;-1.342;2023-11-18T08:02:30;99617.12;;;19.27;36.53
67803;BME280;72185;51.378;-1.342;2023-11-18T08:04:55;99602.94;;;19.46;36.42
67803;BME280;72185;51.378;-1.342;2023-11-18T08:07:21;99608.26;;;19.34;36.57
67803;BME280;72185;51.378;-1.342;2023-11-18T08:09:46;99613.54;;;19.40;36.55
67803;BME280;72185;51.378;-1.342;2023-11-18T08:12:12;99617.73;;;19.51;36.55
67803;BME280;72185;51.378;-1.342;2023-11-18T08:14:37;99614.01;;;19.48;36.60
67803;BME280;72185;51.378;-1.342;2023-11-18T08:17:03;99604.09;;;19.45;36.66
67803;BME280;72185;51.378;-1.342;2023-11-18T08:19:29;99604.81;;;19.50;36.56
67803;BME280;72185;51.378;-1.342;2023-11-18T08:21:54;99600.68;;;19.60;36.48
67803;BME280;72185;51.378;-1.342;2023-11-18T08:24:19;99606.89;;;19.58;36.44
67803;BME280;72185;51.378;-1.342;2023-11-18T08:26:46;99603.02;;;19.65;36.44
67803;BME280;72185;51.378;-1.342;2023-11-18T08:29:11;99607.13;;;19.47;36.61
67803;BME280;72185;51.378;-1.342;2023-11-18T08:31:38;99610.38;;;19.32;36.56
67803;BME280;72185;51.378;-1.342;2023-11-18T08:34:01;99610.34;;;19.47;36.66
67803;BME280;72185;51.378;-1.342;2023-11-18T08:36:27;99606.92;;;19.23;36.69
67803;BME280;72185;51.378;-1.342;2023-11-18T08:38:53;99603.72;;;19.62;36.52
67803;BME280;72185;51.378;-1.342;2023-11-18T08:41:18;99605.39;;;19.61;36.54
67803;BME280;72185;51.378;-1.342;2023-11-18T08:43:44;99602.20;;;19.73;36.44
67803;BME280;72185;51.378;-1.342;2023-11-18T08:46:09;99595.76;;;19.57;36.48
67803;BME280;72185;51.378;-1.342;2023-11-18T08:48:35;99604.92;;;19.89;36.38
67803;BME280;72185;51.378;-1.342;2023-11-18T08:51:00;99607.69;;;19.90;36.39
67803;BME280;72185;51.378;-1.342;2023-11-18T08:53:25;99614.77;;;19.55;36.53
67803;BME280;72185;51.378;-1.342;2023-11-18T08:55:51;99613.81;;;19.68;36.42
67803;BME280;72185;51.378;-1.342;2023-11-18T08:58:17;99602.69;;;19.88;36.50
67803;BME280;72185;51.378;-1.342;2023-11-18T09:00:43;99586.52;;;19.93;36.41
67803;BME280;72185;51.378;-1.342;2023-11-18T09:03:07;99566.42;;;19.88;36.49
67803;BME280;72185;51.378;-1.342;2023-11-18T09:05:33;99547.23;;;19.58;36.58
67803;BME280;72185;51.378;-1.342;2023-11-18T09:07:59;99540.42;;;19.86;36.47
67803;BME280;72185;51.378;-1.342;2023-11-18T09:10:24;99545.60;;;19.93;36.43
67803;BME280;72185;51.378;-1.342;2023-11-18T09:12:49;99566.98;;;19.94;36.40
67803;BME280;72185;51.378;-1.342;2023-11-18T09:15:15;99578.80;;;19.77;36.35
67803;BME280;72185;51.378;-1.342;2023-11-18T09:17:40;99565.08;;;19.76;36.64
67803;BME280;72185;51.378;-1.342;2023-11-18T09:20:07;99552.28;;;19.79;36.39
67803;BME280;72185;51.378;-1.342;2023-11-18T09:22:32;99550.25;;;19.73;36.60
67803;BME280;72185;51.378;-1.342;2023-11-18T09:24:57;99554.59;;;19.70;36.64
67803;BME280;72185;51.378;-1.342;2023-11-18T09:27:23;99548.63;;;19.91;36.64
67803;BME280;72185;51.378;-1.342;2023-11-18T09:29:48;99553.62;;;19.73;36.63
67803;BME280;72185;51.378;-1.342;2023-11-18T09:32:14;99562.38;;;19.50;36.65
67803;BME280;72185;51.378;-1.342;2023-11-18T09:34:40;99555.58;;;19.94;36.78
67803;BME280;72185;51.378;-1.342;2023-11-18T09:37:04;99560.21;;;19.80;37.07
67803;BME280;72185;51.378;-1.342;2023-11-18T09:39:30;99557.61;;;19.56;37.39
67803;BME280;72185;51.378;-1.342;2023-11-18T09:41:55;99553.88;;;19.66;37.11
67803;BME280;72185;51.378;-1.342;2023-11-18T09:44:21;99558.87;;;19.91;36.99
67803;BME280;72185;51.378;-1.342;2023-11-18T09:46:48;99561.34;;;19.47;37.10
67803;BME280;72185;51.378;-1.342;2023-11-18T09:49:17;99575.35;;;19.65;36.96
67803;BME280;72185;51.378;-1.342;2023-11-18T09:51:38;99585.73;;;19.83;36.98
67803;BME280;72185;51.378;-1.342;2023-11-18T09:54:06;99588.29;;;19.71;36.82
67803;BME280;72185;51.378;-1.342;2023-11-18T09:56:31;99587.40;;;19.69;36.81
67803;BME280;72185;51.378;-1.342;2023-11-18T09:59:01;99604.04;;;19.67;36.82
67803;BME280;72185;51.378;-1.342;2023-11-18T10:01:22;99601.22;;;19.75;36.93
67803;BME280;72185;51.378;-1.342;2023-11-18T10:03:45;99594.88;;;19.82;36.81
67803;BME280;72185;51.378;-1.342;2023-11-18T10:06:11;99596.11;;;19.80;36.83
67803;BME280;72185;51.378;-1.342;2023-11-18T10:08:36;99592.31;;;19.49;36.92
67803;BME280;72185;51.378;-1.342;2023-11-18T10:11:01;99587.43;;;19.86;36.71
67803;BME280;72185;51.378;-1.342;2023-11-18T10:13:27;99596.94;;;19.51;36.83
67803;BME280;72185;51.378;-1.342;2023-11-18T10:15:52;99595.02;;;19.73;36.78
67803;BME280;72185;51.378;-1.342;2023-11-18T10:18:18;99590.55;;;19.71;36.81
67803;BME280;72185;51.378;-1.342;2023-11-18T10:20:45;99585.43;;;19.74;36.73
67803;BME280;72185;51.378;-1.342;2023-11-18T10:23:09;99586.57;;;19.66;36.81
67803;BME280;72185;51.378;-1.342;2023-11-18T10:25:34;99585.22;;;19.63;36.80
67803;BME280;72185;51.378;-1.342;2023-11-18T10:28:01;99601.99;;;19.67;36.80
67803;BME280;72185;51.378;-1.342;2023-11-18T10:30:25;99612.83;;;19.05;37.36
67803;BME280;72185;51.378;-1.342;2023-11-18T10:32:56;99608.57;;;19.50;37.45
67803;BME280;72185;51.378;-1.342;2023-11-18T10:35:17;99593.57;;;19.68;37.36
67803;BME280;72185;51.378;-1.342;2023-11-18T10:37:42;99602.76;;;19.47;37.13
67803;BME280;72185;51.378;-1.342;2023-11-18T10:40:08;99596.16;;;19.55;37.47
67803;BME280;72185;51.378;-1.342;2023-11-18T10:42:33;99596.73;;;19.35;37.39
67803;BME280;72185;51.378;-1.342;2023-11-18T10:44:59;99592.60;;;19.38;37.52
67803;BME280;72185;51.378;-1.342;2023-11-18T10:47:25;99598.72;;;19.31;37.53
67803;BME280;72185;51.378;-1.342;2023-11-18T10:49:51;99603.14;;;19.54;37.65
67803;BME280;72185;51.378;-1.342;2023-11-18T10:52:16;99599.79;;;19.47;37.50
67803;BME280;72185;51.378;-1.342;2023-11-18T10:54:49;99591.88;;;19.51;37.28
67803;BME280;72185;51.378;-1.342;2023-11-18T10:57:06;99592.76;;;19.46;37.35
67803;BME280;72185;51.378;-1.342;2023-11-18T10:59:31;99600.03;;;19.65;37.41
67803;BME280;72185;51.378;-1.342;2023-11-18T11:01:57;99599.07;;;19.50;37.56
67803;BME280;72185;51.378;-1.342;2023-11-18T11:04:22;99589.07;;;19.67;37.45
67803;BME280;72185;51.378;-1.342;2023-11-18T11:06:49;99590.23;;;19.68;37.51
67803;BME280;72185;51.378;-1.342;2023-11-18T11:09:13;99597.37;;;19.56;37.45
67803;BME280;72185;51.378;-1.342;2023-11-18T11:11:40;99592.18;;;19.55;37.49
67803;BME280;72185;51.378;-1.342;2023-11-18T11:14:04;99588.56;;;19.27;37.93
67803;BME280;72185;51.378;-1.342;2023-11-18T11:16:36;99582.90;;;19.10;38.12
67803;BME280;72185;51.378;-1.342;2023-11-18T11:18:56;99579.00;;;19.25;38.07
67803;BME280;72185;51.378;-1.342;2023-11-18T11:21:25;99583.83;;;19.36;38.00
67803;BME280;72185;51.378;-1.342;2023-11-18T11:23:50;99587.62;;;19.37;37.96
67803;BME280;72185;51.378;-1.342;2023-11-18T11:26:20;99586.29;;;19.24;37.98
67803;BME280;72185;51.378;-1.342;2023-11-18T11:28:42;99586.46;;;19.21;38.02
67803;BME280;72185;51.378;-1.342;2023-11-18T11:31:10;99581.37;;;19.22;38.14
67803;BME280;72185;51.378;-1.342;2023-11-18T11:33:32;99567.01;;;19.56;38.09
67803;BME280;72185;51.378;-1.342;2023-11-18T11:35:55;99575.49;;;19.56;38.13
67803;BME280;72185;51.378;-1.342;2023-11-18T11:38:20;99556.34;;;19.34;38.42
67803;BME280;72185;51.378;-1.342;2023-11-18T11:40:46;99571.05;;;19.26;38.25
67803;BME280;72185;51.378;-1.342;2023-11-18T11:43:11;99557.30;;;19.07;38.34
67803;BME280;72185;51.378;-1.342;2023-11-18T11:45:37;99566.66;;;19.44;38.33
67803;BME280;72185;51.378;-1.342;2023-11-18T11:48:03;99579.28;;;19.54;38.21
67803;BME280;72185;51.378;-1.342;2023-11-18T11:50:31;99571.11;;;19.51;38.28
67803;BME280;72185;51.378;-1.342;2023-11-18T11:52:56;99576.99;;;19.61;38.24
67803;BME280;72185;51.378;-1.342;2023-11-18T11:55:26;99567.15;;;19.66;38.22
67803;BME280;72185;51.378;-1.342;2023-11-18T11:57:50;99553.36;;;19.07;38.16
67803;BME280;72185;51.378;-1.342;2023-11-18T12:00:10;99561.13;;;19.07;38.07
67803;BME280;72185;51.378;-1.342;2023-11-18T12:02:35;99568.61;;;19.61;38.04
67803;BME280;72185;51.378;-1.342;2023-11-18T12:05:00;99564.70;;;19.58;38.22
67803;BME280;72185;51.378;-1.342;2023-11-18T12:07:26;99569.18;;;19.30;38.29
67803;BME280;72185;51.378;-1.342;2023-11-18T12:09:51;99577.44;;;19.38;38.33
67803;BME280;72185;51.378;-1.342;2023-11-18T12:12:17;99578.75;;;19.52;38.29
67803;BME280;72185;51.378;-1.342;2023-11-18T12:14:50;99578.39;;;19.56;38.43
67803;BME280;72185;51.378;-1.342;2023-11-18T12:17:08;99553.54;;;19.50;38.40
67803;BME280;72185;51.378;-1.342;2023-11-18T12:19:34;99562.56;;;18.93;38.28
67803;BME280;72185;51.378;-1.342;2023-11-18T12:21:59;99564.20;;;19.57;38.06
67803;BME280;72185;51.378;-1.342;2023-11-18T12:24:24;99580.86;;;19.57;38.27
67803;BME280;72185;51.378;-1.342;2023-11-18T12:26:50;99574.66;;;19.63;38.11
67803;BME280;72185;51.378;-1.342;2023-11-18T12:31:41;99571.67;;;19.55;38.16
67803;BME280;72185;51.378;-1.342;2023-11-18T12:34:06;99585.94;;;19.42;38.34
67803;BME280;72185;51.378;-1.342;2023-11-18T12:39:12;99570.21;;;19.42;38.68
67803;BME280;72185;51.378;-1.342;2023-11-18T12:41:33;99570.72;;;19.16;38.75
67803;BME280;72185;51.378;-1.342;2023-11-18T12:43:49;99566.72;;;19.26;38.87